sensor_id;sensor_type;location;lat;lon;timestamp;pressure;altitude;pressure_sealevel;temperature;humidity
84904;BME280;75168;52.096;5.214;2024-03-02T00:00:20;99800.09;;;12.71;47.71
84904;BME280;75168;52.096;5.214;2024-03-02T00:02:48;99796.63;;;12.71;47.59
84904;BME280;75168;52.096;5.214;2024-03-02T00:05:22;99800.97;;;12.70;47.84
84904;BME280;75168;52.096;5.214;2024-03-02T00:07:52;99816.66;;;12.72;48.01
84904;BME280;75168;52.096;5.214;2024-03-02T00:10:23;99814.88;;;12.72;47.98
84904;BME280;75168;52.096;5.214;2024-03-02T00:12:54;99832.34;;;12.72;48.03
84904;BME280;75168;52.096;5.214;2024-03-02T00:18:01;99861.97;;;12.74;48.09
84904;BME280;75168;52.096;5.214;2024-03-02T00:20:26;99889.03;;;12.74;48.22
84904;BME280;75168;52.096;5.214;2024-03-02T00:23:03;99913.44;;;12.73;48.30
84904;BME280;75168;52.096;5.214;2024-03-02T00:25:54;99910.00;;;12.68;48.16
84904;BME280;75168;52.096;5.214;2024-03-02T00:28:22;99915.31;;;12.62;48.40
84904;BME280;75168;52.096;5.214;2024-03-02T00:31:04;99911.94;;;12.51;48.69
84904;BME280;75168;52.096;5.214;2024-03-02T00:33:35;99903.31;;;12.43;48.80
84904;BME280;75168;52.096;5.214;2024-03-02T00:36:03;99908.59;;;12.36;49.07
84904;BME280;75168;52.096;5.214;2024-03-02T00:38:30;99908.66;;;12.30;49.12
84904;BME280;75168;52.096;5.214;2024-03-02T00:40:59;99915.69;;;12.22;49.30
84904;BME280;75168;52.096;5.214;2024-03-02T00:43:47;99911.47;;;12.10;49.57
84904;BME280;75168;52.096;5.214;2024-03-02T00:46:17;99921.09;;;12.07;49.75
84904;BME280;75168;52.096;5.214;2024-03-02T00:48:59;99917.66;;;11.98;50.09
84904;BME280;75168;52.096;5.214;2024-03-02T00:51:27;99907.22;;;11.94;50.00
84904;BME280;75168;52.096;5.214;2024-03-02T00:53:54;99919.41;;;11.89;50.38
84904;BME280;75168;52.096;5.214;2024-03-02T00:56:23;99908.16;;;11.82;50.51
84904;BME280;75168;52.096;5.214;2024-03-02T00:58:49;99923.88;;;11.79;50.73
84904;BME280;75168;52.096;5.214;2024-03-02T01:01:15;99930.84;;;11.75;50.90
84904;BME280;75168;52.096;5.214;2024-03-02T01:03:42;99930.03;;;11.69;51.07
84904;BME280;75168;52.096;5.214;2024-03-02T01:06:08;99914.41;;;11.61;51.48
84904;BME280;75168;52.096;5.214;2024-03-02T01:08:38;99911.81;;;11.55;51.41
84904;BME280;75168;52.096;5.214;2024-03-02T01:11:03;99912.75;;;11.48;50.90
84904;BME280;75168;52.096;5.214;2024-03-02T01:13:29;99918.84;;;11.47;51.37
84904;BME280;75168;52.096;5.214;2024-03-02T01:15:55;99931.06;;;11.43;51.58
84904;BME280;75168;52.096;5.214;2024-03-02T01:18:21;99928.47;;;11.40;51.86
84904;BME280;75168;52.096;5.214;2024-03-02T01:20:48;99932.81;;;11.38;52.04
84904;BME280;75168;52.096;5.214;2024-03-02T01:23:13;99930.22;;;11.36;52.34
84904;BME280;75168;52.096;5.214;2024-03-02T01:25:39;99938.94;;;11.34;52.25
84904;BME280;75168;52.096;5.214;2024-03-02T01:28:05;99937.19;;;11.33;52.33
84904;BME280;75168;52.096;5.214;2024-03-02T01:30:30;99932.00;;;11.30;52.56
84904;BME280;75168;52.096;5.214;2024-03-02T01:32:56;99931.13;;;11.28;52.58
84904;BME280;75168;52.096;5.214;2024-03-02T01:35:21;99944.19;;;11.28;52.64
84904;BME280;75168;52.096;5.214;2024-03-02T01:37:47;99952.00;;;11.28;52.83
84904;BME280;75168;52.096;5.214;2024-03-02T01:40:12;99950.31;;;11.23;52.76
84904;BME280;75168;52.096;5.214;2024-03-02T01:42:38;99943.34;;;11.21;53.01
84904;BME280;75168;52.096;5.214;2024-03-02T01:45:05;99950.31;;;11.17;53.00
84904;BME280;75168;52.096;5.214;2024-03-02T01:47:31;99960.78;;;11.14;53.12
84904;BME280;75168;52.096;5.214;2024-03-02T01:49:57;99961.66;;;11.12;53.14
84904;BME280;75168;52.096;5.214;2024-03-02T01:52:23;99965.16;;;11.09;53.23
84904;BME280;75168;52.096;5.214;2024-03-02T01:54:49;99969.50;;;11.07;53.38
84904;BME280;75168;52.096;5.214;2024-03-02T01:57:15;99963.41;;;11.07;53.49
84904;BME280;75168;52.096;5.214;2024-03-02T01:59:40;99964.31;;;11.05;53.71
84904;BME280;75168;52.096;5.214;2024-03-02T02:02:06;99944.28;;;11.06;53.67
84904;BME280;75168;52.096;5.214;2024-03-02T02:04:32;99954.72;;;11.01;53.75
84904;BME280;75168;52.096;5.214;2024-03-02T02:06:58;99949.53;;;10.97;53.65
84904;BME280;75168;52.096;5.214;2024-03-02T02:09:24;99957.38;;;10.94;53.56
84904;BME280;75168;52.096;5.214;2024-03-02T02:11:50;99965.19;;;10.91;53.82
84904;BME280;75168;52.096;5.214;2024-03-02T02:14:16;99966.94;;;10.89;54.10
84904;BME280;75168;52.096;5.214;2024-03-02T02:16:42;99970.44;;;10.84;54.16
84904;BME280;75168;52.096;5.214;2024-03-02T02:19:07;99964.38;;;10.84;54.15
84904;BME280;75168;52.096;5.214;2024-03-02T02:21:33;99941.75;;;10.83;53.93
84904;BME280;75168;52.096;5.214;2024-03-02T02:23:59;99952.19;;;10.81;54.30
84904;BME280;75168;52.096;5.214;2024-03-02T02:26:24;99956.53;;;10.82;54.12
84904;BME280;75168;52.096;5.214;2024-03-02T02:28:50;99940.03;;;10.80;54.39
84904;BME280;75168;52.096;5.214;2024-03-02T02:31:15;99935.66;;;10.79;54.59
84904;BME280;75168;52.096;5.214;2024-03-02T02:33:45;99953.94;;;10.81;54.76
84904;BME280;75168;52.096;5.214;2024-03-02T02:36:10;99956.53;;;10.79;54.76
84904;BME280;75168;52.096;5.214;2024-03-02T02:38:42;99950.47;;;10.79;54.87
84904;BME280;75168;52.096;5.214;2024-03-02T02:41:09;99963.50;;;10.79;54.55
84904;BME280;75168;52.096;5.214;2024-03-02T02:43:34;99954.81;;;10.77;54.74
84904;BME280;75168;52.096;5.214;2024-03-02T02:46:00;99954.81;;;10.75;55.07
84904;BME280;75168;52.096;5.214;2024-03-02T02:48:25;99961.78;;;10.73;55.11
84904;BME280;75168;52.096;5.214;2024-03-02T02:50:51;99950.47;;;10.73;54.99
84904;BME280;75168;52.096;5.214;2024-03-02T02:53:16;99948.75;;;10.72;55.05
84904;BME280;75168;52.096;5.214;2024-03-02T02:55:42;99960.03;;;10.71;54.98
84904;BME280;75168;52.096;5.214;2024-03-02T02:58:09;99963.53;;;10.70;55.03
84904;BME280;75168;52.096;5.214;2024-03-02T03:00:34;99955.72;;;10.68;55.19
84904;BME280;75168;52.096;5.214;2024-03-02T03:03:01;99958.31;;;10.66;55.16
84904;BME280;75168;52.096;5.214;2024-03-02T03:05:27;99960.06;;;10.66;55.01
84904;BME280;75168;52.096;5.214;2024-03-02T03:07:52;99963.53;;;10.68;55.19
84904;BME280;75168;52.096;5.214;2024-03-02T03:10:18;99955.72;;;10.70;55.00
84904;BME280;75168;52.096;5.214;2024-03-02T03:12:46;99960.03;;;10.69;55.01
84904;BME280;75168;52.096;5.214;2024-03-02T03:15:12;99953.09;;;10.68;55.09
84904;BME280;75168;52.096;5.214;2024-03-02T03:17:37;99960.94;;;10.68;55.16
84904;BME280;75168;52.096;5.214;2024-03-02T03:20:03;99963.53;;;10.70;55.07
84904;BME280;75168;52.096;5.214;2024-03-02T03:22:30;99960.03;;;10.71;55.07
84904;BME280;75168;52.096;5.214;2024-03-02T03:25:00;99968.72;;;10.71;54.94
84904;BME280;75168;52.096;5.214;2024-03-02T03:27:25;99961.78;;;10.70;54.96
84904;BME280;75168;52.096;5.214;2024-03-02T03:29:51;99967.00;;;10.70;55.06
84904;BME280;75168;52.096;5.214;2024-03-02T03:32:17;99965.25;;;10.69;55.00
84904;BME280;75168;52.096;5.214;2024-03-02T03:34:43;99972.22;;;10.69;54.81
84904;BME280;75168;52.096;5.214;2024-03-02T03:37:08;99972.22;;;10.70;55.07
84904;BME280;75168;52.096;5.214;2024-03-02T03:39:35;99970.47;;;10.72;55.02
84904;BME280;75168;52.096;5.214;2024-03-02T03:42:03;99969.63;;;10.73;54.85
84904;BME280;75168;52.096;5.214;2024-03-02T03:44:32;99968.72;;;10.73;54.74
84904;BME280;75168;52.096;5.214;2024-03-02T03:46:58;99977.44;;;10.73;54.69
84904;BME280;75168;52.096;5.214;2024-03-02T03:49:24;99977.41;;;10.75;54.82
84904;BME280;75168;52.096;5.214;2024-03-02T03:51:49;99993.06;;;10.76;54.85
84904;BME280;75168;52.096;5.214;2024-03-02T03:54:15;99990.44;;;10.76;54.97
84904;BME280;75168;52.096;5.214;2024-03-02T03:56:40;99989.59;;;10.76;54.84
84904;BME280;75168;52.096;5.214;2024-03-02T03:59:06;99982.63;;;10.78;54.85
84904;BME280;75168;52.096;5.214;2024-03-02T04:01:31;99983.50;;;10.77;54.83
84904;BME280;75168;52.096;5.214;2024-03-02T04:03:57;99981.75;;;10.77;54.82
84904;BME280;75168;52.096;5.214;2024-03-02T04:06:23;99993.91;;;10.78;54.83
84904;BME280;75168;52.096;5.214;2024-03-02T04:08:48;99986.13;;;10.77;54.90
84904;BME280;75168;52.096;5.214;2024-03-02T04:11:14;99986.97;;;10.76;54.85
84904;BME280;75168;52.096;5.214;2024-03-02T04:13:40;100000.03;;;10.77;54.92
84904;BME280;75168;52.096;5.214;2024-03-02T04:16:05;100005.25;;;10.79;54.98
84904;BME280;75168;52.096;5.214;2024-03-02T04:18:31;100002.63;;;10.80;54.93
84904;BME280;75168;52.096;5.214;2024-03-02T04:20:57;99992.19;;;10.80;54.88
84904;BME280;75168;52.096;5.214;2024-03-02T04:23:25;100000.88;;;10.81;54.88
84904;BME280;75168;52.096;5.214;2024-03-02T04:25:50;99994.81;;;10.80;54.98
84904;BME280;75168;52.096;5.214;2024-03-02T04:28:16;100002.63;;;10.80;54.95
84904;BME280;75168;52.096;5.214;2024-03-02T04:30:42;99991.31;;;10.80;54.96
84904;BME280;75168;52.096;5.214;2024-03-02T04:33:07;99994.81;;;10.79;55.04
84904;BME280;75168;52.096;5.214;2024-03-02T04:35:36;99993.91;;;10.78;55.12
84904;BME280;75168;52.096;5.214;2024-03-02T04:38:02;99998.28;;;10.79;55.06
84904;BME280;75168;52.096;5.214;2024-03-02T04:40:27;100000.03;;;10.80;55.09
84904;BME280;75168;52.096;5.214;2024-03-02T04:42:53;100006.09;;;10.82;54.96
84904;BME280;75168;52.096;5.214;2024-03-02T04:45:18;100001.75;;;10.81;54.95
84904;BME280;75168;52.096;5.214;2024-03-02T04:47:44;100007.81;;;10.82;54.89
84904;BME280;75168;52.096;5.214;2024-03-02T04:50:09;100007.84;;;10.80;54.73
84904;BME280;75168;52.096;5.214;2024-03-02T04:52:35;100012.19;;;10.78;54.73
84904;BME280;75168;52.096;5.214;2024-03-02T04:55:01;100011.31;;;10.76;54.81
84904;BME280;75168;52.096;5.214;2024-03-02T04:57:55;100020.88;;;10.74;54.69
84904;BME280;75168;52.096;5.214;2024-03-02T05:00:21;100027.00;;;10.73;54.75
84904;BME280;75168;52.096;5.214;2024-03-02T05:02:47;100030.47;;;10.71;54.41
84904;BME280;75168;52.096;5.214;2024-03-02T05:05:12;100023.53;;;10.68;54.53
84904;BME280;75168;52.096;5.214;2024-03-02T05:07:40;100031.34;;;10.65;54.46
84904;BME280;75168;52.096;5.214;2024-03-02T05:10:08;100020.03;;;10.60;54.67
84904;BME280;75168;52.096;5.214;2024-03-02T05:12:33;100028.75;;;10.59;54.73
84904;BME280;75168;52.096;5.214;2024-03-02T05:15:19;100028.75;;;10.54;54.65
84904;BME280;75168;52.096;5.214;2024-03-02T05:17:45;100033.09;;;10.52;54.65
84904;BME280;75168;52.096;5.214;2024-03-02T05:20:10;100036.56;;;10.50;54.80
84904;BME280;75168;52.096;5.214;2024-03-02T05:22:37;100036.53;;;10.48;54.90
84904;BME280;75168;52.096;5.214;2024-03-02T05:25:03;100048.72;;;10.47;54.92
84904;BME280;75168;52.096;5.214;2024-03-02T05:27:30;100044.38;;;10.48;54.75
84904;BME280;75168;52.096;5.214;2024-03-02T05:29:55;100046.13;;;10.47;55.02
84904;BME280;75168;52.096;5.214;2024-03-02T05:32:21;100048.72;;;10.46;54.81
84904;BME280;75168;52.096;5.214;2024-03-02T05:34:47;100052.22;;;10.45;55.14
84904;BME280;75168;52.096;5.214;2024-03-02T05:37:12;100048.72;;;10.44;54.95
84904;BME280;75168;52.096;5.214;2024-03-02T05:39:38;100046.09;;;10.44;54.89
84904;BME280;75168;52.096;5.214;2024-03-02T05:42:04;100051.31;;;10.47;54.86
84904;BME280;75168;52.096;5.214;2024-03-02T05:44:29;100053.06;;;10.47;54.86
84904;BME280;75168;52.096;5.214;2024-03-02T05:46:55;100049.59;;;10.46;54.74
84904;BME280;75168;52.096;5.214;2024-03-02T05:49:21;100059.16;;;10.46;54.79
84904;BME280;75168;52.096;5.214;2024-03-02T05:51:47;100066.97;;;10.46;54.70
84904;BME280;75168;52.096;5.214;2024-03-02T05:54:12;100062.63;;;10.45;54.65
84904;BME280;75168;52.096;5.214;2024-03-02T05:56:38;100064.34;;;10.46;54.73
84904;BME280;75168;52.096;5.214;2024-03-02T05:59:03;100066.13;;;10.47;54.70
84904;BME280;75168;52.096;5.214;2024-03-02T06:01:39;100070.44;;;10.50;54.87
84904;BME280;75168;52.096;5.214;2024-03-02T06:04:04;100069.59;;;10.51;54.97
84904;BME280;75168;52.096;5.214;2024-03-02T06:06:30;100071.34;;;10.52;54.64
84904;BME280;75168;52.096;5.214;2024-03-02T06:08:57;100072.19;;;10.52;54.75
84904;BME280;75168;52.096;5.214;2024-03-02T06:11:24;100071.31;;;10.55;54.85
84904;BME280;75168;52.096;5.214;2024-03-02T06:13:50;100071.31;;;10.55;54.70
84904;BME280;75168;52.096;5.214;2024-03-02T06:16:15;100075.69;;;10.57;54.87
84904;BME280;75168;52.096;5.214;2024-03-02T06:18:41;100073.94;;;10.58;54.80
84904;BME280;75168;52.096;5.214;2024-03-02T06:21:06;100077.41;;;10.61;54.84
84904;BME280;75168;52.096;5.214;2024-03-02T06:23:31;100079.16;;;10.62;54.77
84904;BME280;75168;52.096;5.214;2024-03-02T06:25:57;100078.28;;;10.63;54.54
84904;BME280;75168;52.096;5.214;2024-03-02T06:28:23;100086.09;;;10.65;54.71
84904;BME280;75168;52.096;5.214;2024-03-02T06:30:48;100085.25;;;10.66;54.58
84904;BME280;75168;52.096;5.214;2024-03-02T06:33:14;100092.19;;;10.65;54.65
84904;BME280;75168;52.096;5.214;2024-03-02T06:35:39;100091.31;;;10.66;54.59
84904;BME280;75168;52.096;5.214;2024-03-02T06:38:05;100093.94;;;10.66;54.57
84904;BME280;75168;52.096;5.214;2024-03-02T06:40:30;100092.19;;;10.69;54.57
84904;BME280;75168;52.096;5.214;2024-03-02T06:43:04;100091.34;;;10.68;54.49
84904;BME280;75168;52.096;5.214;2024-03-02T06:45:29;100097.41;;;10.70;54.36
84904;BME280;75168;52.096;5.214;2024-03-02T06:47:56;100091.34;;;10.70;54.40
84904;BME280;75168;52.096;5.214;2024-03-02T06:50:22;100093.06;;;10.69;54.47
84904;BME280;75168;52.096;5.214;2024-03-02T06:52:47;100098.28;;;10.71;54.31
84904;BME280;75168;52.096;5.214;2024-03-02T06:55:13;100093.06;;;10.69;54.24
84904;BME280;75168;52.096;5.214;2024-03-02T06:57:38;100087.84;;;10.71;54.20
84904;BME280;75168;52.096;5.214;2024-03-02T07:00:04;100095.66;;;10.72;54.28
84904;BME280;75168;52.096;5.214;2024-03-02T07:02:30;100094.81;;;10.73;54.26
84904;BME280;75168;52.096;5.214;2024-03-02T07:04:56;100102.59;;;10.75;54.14
84904;BME280;75168;52.096;5.214;2024-03-02T07:07:21;100100.00;;;10.76;54.07
84904;BME280;75168;52.096;5.214;2024-03-02T07:09:47;100105.22;;;10.79;54.18
84904;BME280;75168;52.096;5.214;2024-03-02T07:12:13;100100.88;;;10.83;54.24
84904;BME280;75168;52.096;5.214;2024-03-02T07:14:39;100105.22;;;10.89;54.21
84904;BME280;75168;52.096;5.214;2024-03-02T07:17:44;100103.47;;;10.94;54.31
84904;BME280;75168;52.096;5.214;2024-03-02T07:20:10;100104.34;;;10.99;54.31
84904;BME280;75168;52.096;5.214;2024-03-02T07:22:37;100103.47;;;11.06;54.29
84904;BME280;75168;52.096;5.214;2024-03-02T07:25:03;100108.66;;;11.14;54.37
84904;BME280;75168;52.096;5.214;2024-03-02T07:27:30;100113.00;;;11.24;54.33
84904;BME280;75168;52.096;5.214;2024-03-02T07:29:56;100105.16;;;11.32;54.45
84904;BME280;75168;52.096;5.214;2024-03-02T07:32:22;100112.09;;;11.42;54.13
84904;BME280;75168;52.096;5.214;2024-03-02T07:34:47;100115.56;;;11.49;53.97
84904;BME280;75168;52.096;5.214;2024-03-02T07:37:13;100119.03;;;11.55;53.60
84904;BME280;75168;52.096;5.214;2024-03-02T07:39:38;100123.38;;;11.59;53.35
84904;BME280;75168;52.096;5.214;2024-03-02T07:42:05;100130.34;;;11.59;53.09
84904;BME280;75168;52.096;5.214;2024-03-02T07:44:31;100133.81;;;11.59;52.90
84904;BME280;75168;52.096;5.214;2024-03-02T07:46:57;100140.78;;;11.56;52.54
84904;BME280;75168;52.096;5.214;2024-03-02T07:49:22;100137.31;;;11.51;52.56
84904;BME280;75168;52.096;5.214;2024-03-02T07:51:48;100139.06;;;11.49;52.52
84904;BME280;75168;52.096;5.214;2024-03-02T07:54:13;100136.47;;;11.44;52.64
84904;BME280;75168;52.096;5.214;2024-03-02T07:56:39;100133.88;;;11.39;52.44
84904;BME280;75168;52.096;5.214;2024-03-02T07:59:04;100139.97;;;11.35;52.52
84904;BME280;75168;52.096;5.214;2024-03-02T08:01:31;100143.47;;;11.33;52.75
84904;BME280;75168;52.096;5.214;2024-03-02T08:04:00;100142.59;;;11.31;52.85
84904;BME280;75168;52.096;5.214;2024-03-02T08:06:29;100144.34;;;11.29;53.03
84904;BME280;75168;52.096;5.214;2024-03-02T08:08:55;100141.75;;;11.30;52.94
84904;BME280;75168;52.096;5.214;2024-03-02T08:11:21;100148.69;;;11.33;53.03
84904;BME280;75168;52.096;5.214;2024-03-02T08:13:47;100145.19;;;11.35;53.07
84904;BME280;75168;52.096;5.214;2024-03-02T08:16:16;100152.16;;;11.41;53.08
84904;BME280;75168;52.096;5.214;2024-03-02T08:18:46;100145.16;;;11.49;53.51
84904;BME280;75168;52.096;5.214;2024-03-02T08:21:12;100143.38;;;11.63;53.77
84904;BME280;75168;52.096;5.214;2024-03-02T08:23:38;100143.34;;;11.84;54.26
84904;BME280;75168;52.096;5.214;2024-03-02T08:26:06;100144.13;;;12.07;53.93
84904;BME280;75168;52.096;5.214;2024-03-02T08:28:32;100143.16;;;12.24;53.38
84904;BME280;75168;52.096;5.214;2024-03-02T08:30:58;100137.88;;;12.37;53.24
84904;BME280;75168;52.096;5.214;2024-03-02T08:33:24;100132.50;;;12.54;53.96
84904;BME280;75168;52.096;5.214;2024-03-02T08:35:49;100129.75;;;12.74;54.17
84904;BME280;75168;52.096;5.214;2024-03-02T08:38:15;100135.69;;;12.95;53.83
84904;BME280;75168;52.096;5.214;2024-03-02T08:40:41;100121.56;;;13.14;53.47
84904;BME280;75168;52.096;5.214;2024-03-02T08:43:06;100123.13;;;13.34;53.23
84904;BME280;75168;52.096;5.214;2024-03-02T08:45:32;100117.69;;;13.51;52.07
84904;BME280;75168;52.096;5.214;2024-03-02T08:47:59;100117.63;;;13.60;51.20
84904;BME280;75168;52.096;5.214;2024-03-02T08:50:25;100118.47;;;13.62;50.75
84904;BME280;75168;52.096;5.214;2024-03-02T08:52:51;100125.47;;;13.62;50.95
84904;BME280;75168;52.096;5.214;2024-03-02T08:55:16;100123.63;;;13.68;50.67
84904;BME280;75168;52.096;5.214;2024-03-02T08:57:45;100119.22;;;13.70;50.34
84904;BME280;75168;52.096;5.214;2024-03-02T09:00:11;100122.75;;;13.71;50.09
84904;BME280;75168;52.096;5.214;2024-03-02T09:02:37;100120.16;;;13.68;49.75
84904;BME280;75168;52.096;5.214;2024-03-02T09:05:03;100128.94;;;13.65;49.83
84904;BME280;75168;52.096;5.214;2024-03-02T09:07:29;100144.69;;;13.61;49.71
84904;BME280;75168;52.096;5.214;2024-03-02T09:09:56;100141.19;;;13.62;49.65
84904;BME280;75168;52.096;5.214;2024-03-02T09:12:30;100148.16;;;13.63;49.49
84904;BME280;75168;52.096;5.214;2024-03-02T09:14:59;100154.25;;;13.65;49.56
84904;BME280;75168;52.096;5.214;2024-03-02T09:17:25;100143.69;;;13.73;49.75
84904;BME280;75168;52.096;5.214;2024-03-02T09:19:51;100141.91;;;13.76;49.36
84904;BME280;75168;52.096;5.214;2024-03-02T09:22:21;100137.50;;;13.78;49.27
84904;BME280;75168;52.096;5.214;2024-03-02T09:35:45;100150.63;;;13.75;49.33
84904;BME280;75168;52.096;5.214;2024-03-02T09:38:14;100154.94;;;13.79;48.89
84904;BME280;75168;52.096;5.214;2024-03-02T09:40:41;100150.56;;;13.81;48.70
84904;BME280;75168;52.096;5.214;2024-03-02T09:43:10;100143.56;;;13.83;48.45
84904;BME280;75168;52.096;5.214;2024-03-02T09:45:36;100139.16;;;13.85;48.37
84904;BME280;75168;52.096;5.214;2024-03-02T10:03:22;100145.91;;;14.06;48.23
84904;BME280;75168;52.096;5.214;2024-03-02T10:05:48;100149.28;;;14.13;47.67
84904;BME280;75168;52.096;5.214;2024-03-02T10:08:14;100147.47;;;14.18;47.47
84904;BME280;75168;52.096;5.214;2024-03-02T10:10:41;100146.47;;;14.27;47.97
84904;BME280;75168;52.096;5.214;2024-03-02T10:13:11;100156.75;;;14.44;47.60
84904;BME280;75168;52.096;5.214;2024-03-02T10:15:38;100160.91;;;14.57;46.84
84904;BME280;75168;52.096;5.214;2024-03-02T10:18:09;100153.78;;;14.69;46.89
84904;BME280;75168;52.096;5.214;2024-03-02T10:20:36;100156.19;;;14.82;46.71
84904;BME280;75168;52.096;5.214;2024-03-02T10:23:15;100138.53;;;14.94;46.27
84904;BME280;75168;52.096;5.214;2024-03-02T10:25:42;100152.34;;;15.03;45.69
84904;BME280;75168;52.096;5.214;2024-03-02T10:28:11;100134.75;;;15.10;45.37
84904;BME280;75168;52.096;5.214;2024-03-02T10:30:36;100141.59;;;15.19;45.73
84904;BME280;75168;52.096;5.214;2024-03-02T10:33:02;100137.03;;;15.27;44.57
84904;BME280;75168;52.096;5.214;2024-03-02T10:35:29;100140.59;;;15.26;44.74
84904;BME280;75168;52.096;5.214;2024-03-02T10:45:46;100127.44;;;15.74;44.91
84904;BME280;75168;52.096;5.214;2024-03-02T10:48:17;100123.63;;;15.89;44.67
84904;BME280;75168;52.096;5.214;2024-03-02T10:50:43;100121.50;;;16.07;44.68
84904;BME280;75168;52.096;5.214;2024-03-02T10:53:08;100115.78;;;16.27;44.12
84904;BME280;75168;52.096;5.214;2024-03-02T10:55:34;100114.41;;;16.49;44.15
84904;BME280;75168;52.096;5.214;2024-03-02T10:58:00;100110.44;;;16.69;43.88
84904;BME280;75168;52.096;5.214;2024-03-02T11:00:33;100103.63;;;16.96;43.29
84904;BME280;75168;52.096;5.214;2024-03-02T11:03:06;100100.44;;;17.18;43.15
84904;BME280;75168;52.096;5.214;2024-03-02T11:05:44;100103.47;;;17.37;43.09
84904;BME280;75168;52.096;5.214;2024-03-02T11:08:14;100085.34;;;17.56;42.45
84904;BME280;75168;52.096;5.214;2024-03-02T11:10:51;100094.03;;;17.59;42.10
84904;BME280;75168;52.096;5.214;2024-03-02T11:13:46;100112.69;;;17.51;41.59
84904;BME280;75168;52.096;5.214;2024-03-02T11:20:10;100095.53;;;17.99;41.70
84904;BME280;75168;52.096;5.214;2024-03-02T11:22:36;100096.63;;;18.22;41.03
84904;BME280;75168;52.096;5.214;2024-03-02T11:25:05;100108.81;;;18.26;40.33
84904;BME280;75168;52.096;5.214;2024-03-02T11:33:05;100098.13;;;17.69;38.83
84904;BME280;75168;52.096;5.214;2024-03-02T11:35:41;100086.06;;;17.61;38.53
84904;BME280;75168;52.096;5.214;2024-03-02T11:38:09;100095.06;;;17.54;38.57
84904;BME280;75168;52.096;5.214;2024-03-02T11:40:43;100084.97;;;17.38;38.70
84904;BME280;75168;52.096;5.214;2024-03-02T11:43:19;100102.69;;;17.33;38.78
84904;BME280;75168;52.096;5.214;2024-03-02T11:45:44;100098.25;;;17.34;39.21
84904;BME280;75168;52.096;5.214;2024-03-02T11:48:13;100093.63;;;17.43;39.41
84904;BME280;75168;52.096;5.214;2024-03-02T11:53:27;100086.44;;;17.78;39.12
84904;BME280;75168;52.096;5.214;2024-03-02T11:56:01;100087.91;;;17.90;38.86
84904;BME280;75168;52.096;5.214;2024-03-02T11:58:35;100093.00;;;17.96;38.43
84904;BME280;75168;52.096;5.214;2024-03-02T12:01:01;100083.16;;;18.01;38.50
84904;BME280;75168;52.096;5.214;2024-03-02T12:03:27;100080.28;;;18.09;38.72
84904;BME280;75168;52.096;5.214;2024-03-02T12:05:54;100077.91;;;18.30;38.72
84904;BME280;75168;52.096;5.214;2024-03-02T12:08:41;100072.44;;;18.62;38.89
84904;BME280;75168;52.096;5.214;2024-03-02T12:11:07;100053.31;;;18.82;38.03
84904;BME280;75168;52.096;5.214;2024-03-02T12:13:32;100059.03;;;18.95;37.97
84904;BME280;75168;52.096;5.214;2024-03-02T12:15:59;100048.94;;;19.07;37.42
84904;BME280;75168;52.096;5.214;2024-03-02T12:18:25;100053.09;;;19.14;37.01
84904;BME280;75168;52.096;5.214;2024-03-02T12:20:51;100045.06;;;19.17;36.58
84904;BME280;75168;52.096;5.214;2024-03-02T12:23:18;100041.28;;;19.24;36.41
84904;BME280;75168;52.096;5.214;2024-03-02T12:25:43;100041.19;;;19.27;35.94
84904;BME280;75168;52.096;5.214;2024-03-02T12:28:09;100028.13;;;19.23;35.84
84904;BME280;75168;52.096;5.214;2024-03-02T12:30:38;100039.09;;;19.35;35.91
84904;BME280;75168;52.096;5.214;2024-03-02T12:33:04;100020.34;;;19.43;35.63
84904;BME280;75168;52.096;5.214;2024-03-02T12:35:30;100021.41;;;19.37;35.07
84904;BME280;75168;52.096;5.214;2024-03-02T12:37:56;100028.72;;;19.31;34.51
84904;BME280;75168;52.096;5.214;2024-03-02T12:40:22;100022.03;;;19.20;34.36
84904;BME280;75168;52.096;5.214;2024-03-02T12:42:48;100018.75;;;19.14;34.75
84904;BME280;75168;52.096;5.214;2024-03-02T12:45:15;100011.66;;;19.14;35.00
84904;BME280;75168;52.096;5.214;2024-03-02T12:47:41;100014.25;;;19.16;34.83
84904;BME280;75168;52.096;5.214;2024-03-02T12:50:08;100015.25;;;19.13;34.45
84904;BME280;75168;52.096;5.214;2024-03-02T12:52:35;100007.59;;;19.06;34.43
84904;BME280;75168;52.096;5.214;2024-03-02T12:55:02;100018.41;;;18.98;34.45
84904;BME280;75168;52.096;5.214;2024-03-02T12:57:30;100011.53;;;18.94;34.25
84904;BME280;75168;52.096;5.214;2024-03-02T13:00:21;100006.34;;;18.91;34.92
84904;BME280;75168;52.096;5.214;2024-03-02T13:02:50;99996.28;;;19.02;34.57
84904;BME280;75168;52.096;5.214;2024-03-02T13:05:15;99999.03;;;18.99;34.54
84904;BME280;75168;52.096;5.214;2024-03-02T13:07:41;100002.63;;;18.96;34.46
84904;BME280;75168;52.096;5.214;2024-03-02T13:10:07;100006.19;;;18.95;34.35
84904;BME280;75168;52.096;5.214;2024-03-02T13:12:36;99998.41;;;18.91;34.35
84904;BME280;75168;52.096;5.214;2024-03-02T13:15:03;100006.69;;;18.80;34.12
84904;BME280;75168;52.096;5.214;2024-03-02T13:17:29;100021.19;;;18.68;34.33
84904;BME280;75168;52.096;5.214;2024-03-02T13:20:08;100003.88;;;18.59;34.43
84904;BME280;75168;52.096;5.214;2024-03-02T13:22:36;100018.03;;;18.57;34.87
84904;BME280;75168;52.096;5.214;2024-03-02T13:25:02;100002.56;;;18.46;34.24
84904;BME280;75168;52.096;5.214;2024-03-02T13:27:31;99999.47;;;18.33;34.57
84904;BME280;75168;52.096;5.214;2024-03-02T13:29:59;100004.78;;;18.32;35.09
84904;BME280;75168;52.096;5.214;2024-03-02T13:32:25;99994.91;;;18.38;35.20
84904;BME280;75168;52.096;5.214;2024-03-02T13:34:51;100001.03;;;18.39;35.32
84904;BME280;75168;52.096;5.214;2024-03-02T13:37:17;99985.91;;;18.44;35.07
84904;BME280;75168;52.096;5.214;2024-03-02T13:39:42;99997.22;;;18.48;35.09
84904;BME280;75168;52.096;5.214;2024-03-02T13:42:12;100000.91;;;18.43;34.98